sensor_id;sensor_type;location;lat;lon;timestamp;temperature;humidity
33093;DHT22;19456;46.104;12.908;2023-10-08T00:02:16;16.50;99.90
33093;DHT22;19456;46.104;12.908;2023-10-08T00:04:48;16.60;99.90
33093;DHT22;19456;46.104;12.908;2023-10-08T00:07:16;16.50;99.90
33093;DHT22;19456;46.104;12.908;2023-10-08T00:09:49;16.50;99.90
33093;DHT22;19456;46.104;12.908;2023-10-08T00:12:20;16.50;99.90
33093;DHT22;19456;46.104;12.908;2023-10-08T00:14:46;16.60;99.90
33093;DHT22;19456;46.104;12.908;2023-10-08T00:17:15;16.70;99.90
33093;DHT22;19456;46.104;12.908;2023-10-08T00:19:41;16.60;99.90
33093;DHT22;19456;46.104;12.908;2023-10-08T00:22:11;16.60;99.90
33093;DHT22;19456;46.104;12.908;2023-10-08T00:24:41;16.70;99.90
33093;DHT22;19456;46.104;12.908;2023-10-08T00:27:08;16.50;99.90
33093;DHT22;19456;46.104;12.908;2023-10-08T00:29:33;16.50;99.90
33093;DHT22;19456;46.104;12.908;2023-10-08T00:31:59;16.50;99.90
33093;DHT22;19456;46.104;12.908;2023-10-08T00:34:28;16.60;99.90
33093;DHT22;19456;46.104;12.908;2023-10-08T00:36:54;16.40;99.90
33093;DHT22;19456;46.104;12.908;2023-10-08T00:39:20;16.30;99.90
33093;DHT22;19456;46.104;12.908;2023-10-08T00:41:50;16.30;99.90
33093;DHT22;19456;46.104;12.908;2023-10-08T00:44:16;15.90;99.90
33093;DHT22;19456;46.104;12.908;2023-10-08T00:46:51;15.60;99.90
33093;DHT22;19456;46.104;12.908;2023-10-08T00:49:17;15.60;99.90
33093;DHT22;19456;46.104;12.908;2023-10-08T00:51:56;15.60;99.90
33093;DHT22;19456;46.104;12.908;2023-10-08T00:54:31;15.50;99.90
33093;DHT22;19456;46.104;12.908;2023-10-08T00:57:05;15.40;99.90
33093;DHT22;19456;46.104;12.908;2023-10-08T00:59:31;15.50;99.90
33093;DHT22;19456;46.104;12.908;2023-10-08T01:02:02;15.60;99.90
33093;DHT22;19456;46.104;12.908;2023-10-08T01:04:33;15.70;99.90
33093;DHT22;19456;46.104;12.908;2023-10-08T01:07:00;15.70;99.90
33093;DHT22;19456;46.104;12.908;2023-10-08T01:09:38;15.70;99.90
33093;DHT22;19456;46.104;12.908;2023-10-08T01:14:41;15.60;99.90
33093;DHT22;19456;46.104;12.908;2023-10-08T01:17:13;15.40;99.90
33093;DHT22;19456;46.104;12.908;2023-10-08T01:19:47;15.30;99.90
33093;DHT22;19456;46.104;12.908;2023-10-08T01:22:19;15.50;99.90
33093;DHT22;19456;46.104;12.908;2023-10-08T01:24:47;15.70;99.90
33093;DHT22;19456;46.104;12.908;2023-10-08T01:27:17;15.80;99.90
33093;DHT22;19456;46.104;12.908;2023-10-08T01:29:48;15.80;99.90
33093;DHT22;19456;46.104;12.908;2023-10-08T01:32:19;15.70;99.90
33093;DHT22;19456;46.104;12.908;2023-10-08T01:34:46;15.50;99.90
33093;DHT22;19456;46.104;12.908;2023-10-08T01:37:18;15.40;99.90
33093;DHT22;19456;46.104;12.908;2023-10-08T01:39:44;15.40;99.90
33093;DHT22;19456;46.104;12.908;2023-10-08T01:42:11;15.40;99.90
33093;DHT22;19456;46.104;12.908;2023-10-08T01:44:45;15.40;99.90
33093;DHT22;19456;46.104;12.908;2023-10-08T01:47:12;15.40;99.90
33093;DHT22;19456;46.104;12.908;2023-10-08T01:49:38;15.50;99.90
33093;DHT22;19456;46.104;12.908;2023-10-08T01:52:05;15.50;99.90
33093;DHT22;19456;46.104;12.908;2023-10-08T01:54:33;15.40;99.90
33093;DHT22;19456;46.104;12.908;2023-10-08T01:57:01;15.40;99.90
33093;DHT22;19456;46.104;12.908;2023-10-08T01:59:26;15.40;99.90
33093;DHT22;19456;46.104;12.908;2023-10-08T02:01:52;15.40;99.90
33093;DHT22;19456;46.104;12.908;2023-10-08T02:04:21;15.50;99.90
33093;DHT22;19456;46.104;12.908;2023-10-08T02:06:47;15.50;99.90
33093;DHT22;19456;46.104;12.908;2023-10-08T02:09:12;15.70;99.90
33093;DHT22;19456;46.104;12.908;2023-10-08T02:14:08;15.70;99.90
33093;DHT22;19456;46.104;12.908;2023-10-08T02:16:34;15.80;99.90
33093;DHT22;19456;46.104;12.908;2023-10-08T02:19:00;15.90;99.90
33093;DHT22;19456;46.104;12.908;2023-10-08T02:21:25;16.00;99.90
33093;DHT22;19456;46.104;12.908;2023-10-08T02:23:52;16.10;99.90
33093;DHT22;19456;46.104;12.908;2023-10-08T02:26:18;16.00;99.90
33093;DHT22;19456;46.104;12.908;2023-10-08T02:28:44;16.00;99.90
33093;DHT22;19456;46.104;12.908;2023-10-08T02:31:10;15.80;99.90
33093;DHT22;19456;46.104;12.908;2023-10-08T02:33:35;15.60;99.90
33093;DHT22;19456;46.104;12.908;2023-10-08T02:36:02;15.60;99.90
33093;DHT22;19456;46.104;12.908;2023-10-08T02:38:29;15.70;99.90
33093;DHT22;19456;46.104;12.908;2023-10-08T02:41:03;15.70;99.90
33093;DHT22;19456;46.104;12.908;2023-10-08T02:43:32;15.70;99.90
33093;DHT22;19456;46.104;12.908;2023-10-08T02:46:00;15.70;99.90
33093;DHT22;19456;46.104;12.908;2023-10-08T02:48:25;15.90;99.90
33093;DHT22;19456;46.104;12.908;2023-10-08T02:50:52;16.00;99.90
33093;DHT22;19456;46.104;12.908;2023-10-08T02:53:19;16.00;99.90
33093;DHT22;19456;46.104;12.908;2023-10-08T02:55:48;15.80;99.90
33093;DHT22;19456;46.104;12.908;2023-10-08T02:58:15;15.80;99.90
33093;DHT22;19456;46.104;12.908;2023-10-08T03:00:41;15.90;99.90
33093;DHT22;19456;46.104;12.908;2023-10-08T03:03:07;15.90;99.90
33093;DHT22;19456;46.104;12.908;2023-10-08T03:05:53;15.80;99.90
33093;DHT22;19456;46.104;12.908;2023-10-08T03:08:22;15.90;99.90
33093;DHT22;19456;46.104;12.908;2023-10-08T03:10:48;15.70;99.90
33093;DHT22;19456;46.104;12.908;2023-10-08T03:13:15;15.70;99.90
33093;DHT22;19456;46.104;12.908;2023-10-08T03:15:41;15.60;99.90
33093;DHT22;19456;46.104;12.908;2023-10-08T03:18:26;15.60;99.90
33093;DHT22;19456;46.104;12.908;2023-10-08T03:20:59;15.50;99.90
33093;DHT22;19456;46.104;12.908;2023-10-08T03:23:29;15.30;99.90
33093;DHT22;19456;46.104;12.908;2023-10-08T03:26:02;15.40;99.90
33093;DHT22;19456;46.104;12.908;2023-10-08T03:28:53;15.40;99.90
33093;DHT22;19456;46.104;12.908;2023-10-08T03:31:23;15.40;99.90
33093;DHT22;19456;46.104;12.908;2023-10-08T03:34:09;15.40;99.90
33093;DHT22;19456;46.104;12.908;2023-10-08T03:36:38;15.50;99.90
33093;DHT22;19456;46.104;12.908;2023-10-08T03:39:15;15.70;99.90
33093;DHT22;19456;46.104;12.908;2023-10-08T03:41:44;15.70;99.90
33093;DHT22;19456;46.104;12.908;2023-10-08T03:44:31;15.80;99.90
33093;DHT22;19456;46.104;12.908;2023-10-08T03:46:57;15.70;99.90
33093;DHT22;19456;46.104;12.908;2023-10-08T03:49:22;15.70;99.90
33093;DHT22;19456;46.104;12.908;2023-10-08T03:51:48;15.50;99.90
33093;DHT22;19456;46.104;12.908;2023-10-08T03:54:17;15.50;99.90
33093;DHT22;19456;46.104;12.908;2023-10-08T03:56:44;15.60;99.90
33093;DHT22;19456;46.104;12.908;2023-10-08T03:59:19;15.70;99.90
33093;DHT22;19456;46.104;12.908;2023-10-08T04:01:57;15.60;99.90
33093;DHT22;19456;46.104;12.908;2023-10-08T04:04:42;15.70;99.90
33093;DHT22;19456;46.104;12.908;2023-10-08T04:07:16;15.50;99.90
33093;DHT22;19456;46.104;12.908;2023-10-08T04:09:57;15.60;99.90
33093;DHT22;19456;46.104;12.908;2023-10-08T04:12:35;15.50;99.90
33093;DHT22;19456;46.104;12.908;2023-10-08T04:15:04;15.50;99.90
33093;DHT22;19456;46.104;12.908;2023-10-08T04:17:33;15.60;99.90
33093;DHT22;19456;46.104;12.908;2023-10-08T04:20:13;15.60;99.90
33093;DHT22;19456;46.104;12.908;2023-10-08T04:22:57;15.60;99.90
33093;DHT22;19456;46.104;12.908;2023-10-08T04:25:32;15.60;99.90
33093;DHT22;19456;46.104;12.908;2023-10-08T04:27:58;15.70;99.90
33093;DHT22;19456;46.104;12.908;2023-10-08T04:30:27;15.80;99.90
33093;DHT22;19456;46.104;12.908;2023-10-08T04:32:59;15.80;99.90
33093;DHT22;19456;46.104;12.908;2023-10-08T04:35:34;15.90;99.90
33093;DHT22;19456;46.104;12.908;2023-10-08T04:38:15;15.90;99.90
33093;DHT22;19456;46.104;12.908;2023-10-08T04:40:44;15.60;99.90
33093;DHT22;19456;46.104;12.908;2023-10-08T04:43:14;15.40;99.90
33093;DHT22;19456;46.104;12.908;2023-10-08T04:45:41;15.30;99.90
33093;DHT22;19456;46.104;12.908;2023-10-08T04:48:06;15.40;99.90
33093;DHT22;19456;46.104;12.908;2023-10-08T04:50:35;15.40;99.90
33093;DHT22;19456;46.104;12.908;2023-10-08T04:53:03;15.40;99.90
33093;DHT22;19456;46.104;12.908;2023-10-08T04:55:36;15.50;99.90
33093;DHT22;19456;46.104;12.908;2023-10-08T04:58:07;15.60;99.90
33093;DHT22;19456;46.104;12.908;2023-10-08T05:00:45;15.60;99.90
33093;DHT22;19456;46.104;12.908;2023-10-08T05:03:21;15.60;99.90
33093;DHT22;19456;46.104;12.908;2023-10-08T05:05:57;15.60;99.90
33093;DHT22;19456;46.104;12.908;2023-10-08T05:08:31;15.70;99.90
33093;DHT22;19456;46.104;12.908;2023-10-08T05:11:35;15.50;99.90
33093;DHT22;19456;46.104;12.908;2023-10-08T05:14:24;15.40;99.90
33093;DHT22;19456;46.104;12.908;2023-10-08T05:17:13;15.40;99.90
33093;DHT22;19456;46.104;12.908;2023-10-08T05:19:41;15.20;99.90
33093;DHT22;19456;46.104;12.908;2023-10-08T05:22:13;15.10;99.90
33093;DHT22;19456;46.104;12.908;2023-10-08T05:24:54;15.20;99.90
33093;DHT22;19456;46.104;12.908;2023-10-08T05:27:40;15.20;99.90
33093;DHT22;19456;46.104;12.908;2023-10-08T05:32:56;15.20;99.90
33093;DHT22;19456;46.104;12.908;2023-10-08T05:35:41;15.20;99.90
33093;DHT22;19456;46.104;12.908;2023-10-08T05:38:10;15.30;99.90
33093;DHT22;19456;46.104;12.908;2023-10-08T05:40:48;15.30;99.90
33093;DHT22;19456;46.104;12.908;2023-10-08T05:46:04;15.60;99.90
33093;DHT22;19456;46.104;12.908;2023-10-08T05:54:17;15.90;99.90
33093;DHT22;19456;46.104;12.908;2023-10-08T05:57:13;15.80;99.90
33093;DHT22;19456;46.104;12.908;2023-10-08T05:59:38;15.80;99.90
33093;DHT22;19456;46.104;12.908;2023-10-08T06:02:31;15.80;99.90
33093;DHT22;19456;46.104;12.908;2023-10-08T06:05:00;15.80;99.90
33093;DHT22;19456;46.104;12.908;2023-10-08T06:07:38;15.60;99.90
33093;DHT22;19456;46.104;12.908;2023-10-08T06:15:49;15.60;99.90
33093;DHT22;19456;46.104;12.908;2023-10-08T06:18:25;15.70;99.90
33093;DHT22;19456;46.104;12.908;2023-10-08T06:20:53;15.80;99.90
33093;DHT22;19456;46.104;12.908;2023-10-08T06:23:24;15.90;99.90
33093;DHT22;19456;46.104;12.908;2023-10-08T06:25:50;16.10;99.90
33093;DHT22;19456;46.104;12.908;2023-10-08T06:28:31;16.00;99.90
33093;DHT22;19456;46.104;12.908;2023-10-08T06:31:00;16.10;99.90
33093;DHT22;19456;46.104;12.908;2023-10-08T06:33:26;16.30;99.90
33093;DHT22;19456;46.104;12.908;2023-10-08T06:35:56;16.50;99.90
33093;DHT22;19456;46.104;12.908;2023-10-08T06:38:28;16.50;99.90
33093;DHT22;19456;46.104;12.908;2023-10-08T06:40:59;16.60;99.90
33093;DHT22;19456;46.104;12.908;2023-10-08T06:43:48;16.60;99.90
33093;DHT22;19456;46.104;12.908;2023-10-08T06:46:30;16.80;99.90
33093;DHT22;19456;46.104;12.908;2023-10-08T06:49:08;17.00;99.90
33093;DHT22;19456;46.104;12.908;2023-10-08T06:51:37;17.30;99.90
33093;DHT22;19456;46.104;12.908;2023-10-08T06:54:03;17.60;99.90
33093;DHT22;19456;46.104;12.908;2023-10-08T06:56:28;17.70;99.90
33093;DHT22;19456;46.104;12.908;2023-10-08T06:58:56;17.90;99.90
33093;DHT22;19456;46.104;12.908;2023-10-08T07:01:24;18.00;99.90
33093;DHT22;19456;46.104;12.908;2023-10-08T07:03:56;18.20;99.90
33093;DHT22;19456;46.104;12.908;2023-10-08T07:06:28;18.30;99.90
33093;DHT22;19456;46.104;12.908;2023-10-08T07:09:02;18.40;99.90
33093;DHT22;19456;46.104;12.908;2023-10-08T07:11:31;18.50;99.90
33093;DHT22;19456;46.104;12.908;2023-10-08T07:14:03;18.40;99.90
33093;DHT22;19456;46.104;12.908;2023-10-08T07:16:30;18.40;99.90
33093;DHT22;19456;46.104;12.908;2023-10-08T07:18:55;18.50;99.90
33093;DHT22;19456;46.104;12.908;2023-10-08T07:21:27;18.60;99.90
33093;DHT22;19456;46.104;12.908;2023-10-08T07:24:04;18.60;99.90
33093;DHT22;19456;46.104;12.908;2023-10-08T07:26:34;18.60;99.90
33093;DHT22;19456;46.104;12.908;2023-10-08T07:29:03;18.70;99.90
33093;DHT22;19456;46.104;12.908;2023-10-08T07:31:35;18.80;99.90
33093;DHT22;19456;46.104;12.908;2023-10-08T07:34:04;18.90;99.90
33093;DHT22;19456;46.104;12.908;2023-10-08T07:36:48;19.00;99.90
33093;DHT22;19456;46.104;12.908;2023-10-08T07:39:18;19.10;99.90
33093;DHT22;19456;46.104;12.908;2023-10-08T07:42:07;19.20;99.90
33093;DHT22;19456;46.104;12.908;2023-10-08T07:44:33;19.50;99.90
33093;DHT22;19456;46.104;12.908;2023-10-08T07:47:04;19.60;99.90
33093;DHT22;19456;46.104;12.908;2023-10-08T07:49:30;19.70;99.90
33093;DHT22;19456;46.104;12.908;2023-10-08T07:51:56;19.80;99.90
33093;DHT22;19456;46.104;12.908;2023-10-08T07:54:24;19.80;99.90
33093;DHT22;19456;46.104;12.908;2023-10-08T07:56:50;19.90;99.90
33093;DHT22;19456;46.104;12.908;2023-10-08T07:59:25;20.00;99.90
33093;DHT22;19456;46.104;12.908;2023-10-08T08:01:51;20.10;99.90
33093;DHT22;19456;46.104;12.908;2023-10-08T08:04:19;20.20;99.90
33093;DHT22;19456;46.104;12.908;2023-10-08T08:06:51;20.20;99.90
33093;DHT22;19456;46.104;12.908;2023-10-08T08:09:18;20.30;99.90
33093;DHT22;19456;46.104;12.908;2023-10-08T08:11:47;20.30;99.90
33093;DHT22;19456;46.104;12.908;2023-10-08T08:14:16;20.40;99.90
33093;DHT22;19456;46.104;12.908;2023-10-08T08:16:42;20.40;99.90
33093;DHT22;19456;46.104;12.908;2023-10-08T08:19:11;20.30;99.90
33093;DHT22;19456;46.104;12.908;2023-10-08T08:21:38;20.50;99.90
33093;DHT22;19456;46.104;12.908;2023-10-08T08:24:13;20.60;99.90
33093;DHT22;19456;46.104;12.908;2023-10-08T08:26:39;20.80;99.90
33093;DHT22;19456;46.104;12.908;2023-10-08T08:29:10;20.90;99.90
33093;DHT22;19456;46.104;12.908;2023-10-08T08:31:40;21.00;99.90
33093;DHT22;19456;46.104;12.908;2023-10-08T08:34:11;21.00;99.90
33093;DHT22;19456;46.104;12.908;2023-10-08T08:36:45;21.20;99.90
33093;DHT22;19456;46.104;12.908;2023-10-08T08:39:14;21.30;99.90
33093;DHT22;19456;46.104;12.908;2023-10-08T08:41:53;21.50;99.90
33093;DHT22;19456;46.104;12.908;2023-10-08T08:44:20;21.70;99.90
33093;DHT22;19456;46.104;12.908;2023-10-08T08:46:47;21.80;99.90
33093;DHT22;19456;46.104;12.908;2023-10-08T08:49:13;21.90;99.90
33093;DHT22;19456;46.104;12.908;2023-10-08T08:51:39;22.10;99.90
33093;DHT22;19456;46.104;12.908;2023-10-08T08:54:06;22.10;99.90
33093;DHT22;19456;46.104;12.908;2023-10-08T08:56:36;22.20;99.90
33093;DHT22;19456;46.104;12.908;2023-10-08T08:59:06;22.40;99.90
33093;DHT22;19456;46.104;12.908;2023-10-08T09:01:39;22.40;99.90
33093;DHT22;19456;46.104;12.908;2023-10-08T09:04:05;22.50;99.90
33093;DHT22;19456;46.104;12.908;2023-10-08T09:06:34;22.40;99.90
33093;DHT22;19456;46.104;12.908;2023-10-08T09:09:06;22.30;99.90
33093;DHT22;19456;46.104;12.908;2023-10-08T09:11:51;22.20;99.90
33093;DHT22;19456;46.104;12.908;2023-10-08T09:14:23;22.40;99.90
33093;DHT22;19456;46.104;12.908;2023-10-08T09:16:50;22.50;99.90
33093;DHT22;19456;46.104;12.908;2023-10-08T09:19:16;22.60;99.90
33093;DHT22;19456;46.104;12.908;2023-10-08T09:22:01;22.70;99.90
33093;DHT22;19456;46.104;12.908;2023-10-08T09:24:33;22.80;99.90
33093;DHT22;19456;46.104;12.908;2023-10-08T09:29:30;22.90;99.90
33093;DHT22;19456;46.104;12.908;2023-10-08T09:31:56;23.00;99.90
33093;DHT22;19456;46.104;12.908;2023-10-08T09:34:29;23.10;99.90
33093;DHT22;19456;46.104;12.908;2023-10-08T09:36:55;23.20;99.90
33093;DHT22;19456;46.104;12.908;2023-10-08T09:39:21;23.10;99.90
33093;DHT22;19456;46.104;12.908;2023-10-08T09:41:52;23.00;99.90
33093;DHT22;19456;46.104;12.908;2023-10-08T09:44:19;23.10;99.90
33093;DHT22;19456;46.104;12.908;2023-10-08T09:46:46;23.20;99.90
33093;DHT22;19456;46.104;12.908;2023-10-08T09:49:13;23.40;99.90
33093;DHT22;19456;46.104;12.908;2023-10-08T09:51:40;23.40;99.90
33093;DHT22;19456;46.104;12.908;2023-10-08T09:54:10;23.70;99.90
33093;DHT22;19456;46.104;12.908;2023-10-08T09:56:36;23.80;99.90
33093;DHT22;19456;46.104;12.908;2023-10-08T09:59:02;24.00;99.90
33093;DHT22;19456;46.104;12.908;2023-10-08T10:01:27;24.00;99.90
33093;DHT22;19456;46.104;12.908;2023-10-08T10:03:53;24.00;99.90
33093;DHT22;19456;46.104;12.908;2023-10-08T10:06:19;24.30;99.90
33093;DHT22;19456;46.104;12.908;2023-10-08T10:08:45;24.30;99.90
33093;DHT22;19456;46.104;12.908;2023-10-08T10:11:10;24.20;99.90
33093;DHT22;19456;46.104;12.908;2023-10-08T10:13:41;24.20;99.90
33093;DHT22;19456;46.104;12.908;2023-10-08T10:16:06;24.30;99.90
33093;DHT22;19456;46.104;12.908;2023-10-08T10:18:33;24.50;99.90
33093;DHT22;19456;46.104;12.908;2023-10-08T10:20:59;24.50;99.90
33093;DHT22;19456;46.104;12.908;2023-10-08T10:23:47;24.70;99.90
33093;DHT22;19456;46.104;12.908;2023-10-08T10:26:28;24.60;99.90
33093;DHT22;19456;46.104;12.908;2023-10-08T10:31:34;24.70;99.90
33093;DHT22;19456;46.104;12.908;2023-10-08T10:34:06;24.80;99.90
33093;DHT22;19456;46.104;12.908;2023-10-08T10:36:37;25.00;99.90
33093;DHT22;19456;46.104;12.908;2023-10-08T10:39:08;25.10;99.90
33093;DHT22;19456;46.104;12.908;2023-10-08T10:41:52;25.30;99.90
33093;DHT22;19456;46.104;12.908;2023-10-08T10:44:21;25.10;99.90
33093;DHT22;19456;46.104;12.908;2023-10-08T10:46:46;25.20;99.90
33093;DHT22;19456;46.104;12.908;2023-10-08T10:49:16;25.30;99.90
33093;DHT22;19456;46.104;12.908;2023-10-08T10:51:42;25.70;99.90
33093;DHT22;19456;46.104;12.908;2023-10-08T10:54:07;25.80;99.90
33093;DHT22;19456;46.104;12.908;2023-10-08T10:56:34;25.70;99.90
33093;DHT22;19456;46.104;12.908;2023-10-08T10:59:06;26.00;99.90
33093;DHT22;19456;46.104;12.908;2023-10-08T11:01:47;26.40;99.90
33093;DHT22;19456;46.104;12.908;2023-10-08T11:04:20;26.50;99.90
33093;DHT22;19456;46.104;12.908;2023-10-08T11:06:54;27.10;99.90
33093;DHT22;19456;46.104;12.908;2023-10-08T11:09:26;27.10;99.90
33093;DHT22;19456;46.104;12.908;2023-10-08T11:12:03;27.40;99.90
33093;DHT22;19456;46.104;12.908;2023-10-08T11:14:42;27.00;99.90
33093;DHT22;19456;46.104;12.908;2023-10-08T11:17:12;27.20;99.90
33093;DHT22;19456;46.104;12.908;2023-10-08T11:19:38;27.30;99.90
33093;DHT22;19456;46.104;12.908;2023-10-08T11:22:03;26.90;99.90
33093;DHT22;19456;46.104;12.908;2023-10-08T11:24:31;26.80;99.90
33093;DHT22;19456;46.104;12.908;2023-10-08T11:27:01;26.80;99.90
33093;DHT22;19456;46.104;12.908;2023-10-08T11:29:47;26.60;99.90
33093;DHT22;19456;46.104;12.908;2023-10-08T11:32:13;26.40;99.90
33093;DHT22;19456;46.104;12.908;2023-10-08T11:34:46;26.30;99.90
33093;DHT22;19456;46.104;12.908;2023-10-08T11:37:16;26.40;99.90
33093;DHT22;19456;46.104;12.908;2023-10-08T11:39:51;26.50;99.90
33093;DHT22;19456;46.104;12.908;2023-10-08T11:42:18;26.60;99.90
33093;DHT22;19456;46.104;12.908;2023-10-08T11:45:08;26.20;99.90
33093;DHT22;19456;46.104;12.908;2023-10-08T11:47:43;26.10;99.90
33093;DHT22;19456;46.104;12.908;2023-10-08T11:50:11;25.90;99.90
33093;DHT22;19456;46.104;12.908;2023-10-08T11:52:41;26.50;99.90
33093;DHT22;19456;46.104;12.908;2023-10-08T11:55:08;27.20;99.90
33093;DHT22;19456;46.104;12.908;2023-10-08T11:57:33;27.70;99.90
33093;DHT22;19456;46.104;12.908;2023-10-08T12:00:01;27.90;99.90
33093;DHT22;19456;46.104;12.908;2023-10-08T12:02:42;27.50;99.90
33093;DHT22;19456;46.104;12.908;2023-10-08T12:05:09;27.70;99.90
33093;DHT22;19456;46.104;12.908;2023-10-08T12:07:47;27.30;99.90
33093;DHT22;19456;46.104;12.908;2023-10-08T12:10:17;28.00;99.90
33093;DHT22;19456;46.104;12.908;2023-10-08T12:12:50;28.70;99.90
33093;DHT22;19456;46.104;12.908;2023-10-08T12:15:20;29.10;99.90
33093;DHT22;19456;46.104;12.908;2023-10-08T12:17:48;29.40;99.90
33093;DHT22;19456;46.104;12.908;2023-10-08T12:20:41;29.80;99.90
33093;DHT22;19456;46.104;12.908;2023-10-08T12:23:10;30.10;99.90
33093;DHT22;19456;46.104;12.908;2023-10-08T12:25:36;30.40;99.90
33093;DHT22;19456;46.104;12.908;2023-10-08T12:28:03;30.90;99.90
33093;DHT22;19456;46.104;12.908;2023-10-08T12:30:32;31.20;99.90
33093;DHT22;19456;46.104;12.908;2023-10-08T12:33:06;31.70;99.90
33093;DHT22;19456;46.104;12.908;2023-10-08T12:35:32;32.70;99.20
33093;DHT22;19456;46.104;12.908;2023-10-08T12:37:58;32.60;97.50
33093;DHT22;19456;46.104;12.908;2023-10-08T12:40:23;33.00;96.90
33093;DHT22;19456;46.104;12.908;2023-10-08T12:42:52;33.50;96.10
33093;DHT22;19456;46.104;12.908;2023-10-08T12:45:18;32.80;94.90
33093;DHT22;19456;46.104;12.908;2023-10-08T12:47:50;32.10;96.00
33093;DHT22;19456;46.104;12.908;2023-10-08T12:50:17;32.90;95.40
33093;DHT22;19456;46.104;12.908;2023-10-08T12:52:48;33.50;93.80
33093;DHT22;19456;46.104;12.908;2023-10-08T12:55:20;33.50;93.10
33093;DHT22;19456;46.104;12.908;2023-10-08T12:57:55;33.50;92.60
33093;DHT22;19456;46.104;12.908;2023-10-08T13:00:21;33.30;92.00
33093;DHT22;19456;46.104;12.908;2023-10-08T13:02:49;33.10;92.00
33093;DHT22;19456;46.104;12.908;2023-10-08T13:05:19;33.00;92.40
33093;DHT22;19456;46.104;12.908;2023-10-08T13:07:52;32.90;92.50
33093;DHT22;19456;46.104;12.908;2023-10-08T13:10:19;33.10;92.20
33093;DHT22;19456;46.104;12.908;2023-10-08T13:12:47;32.70;92.50
33093;DHT22;19456;46.104;12.908;2023-10-08T13:15:13;32.10;93.00
33093;DHT22;19456;46.104;12.908;2023-10-08T13:17:38;31.10;93.90
33093;DHT22;19456;46.104;12.908;2023-10-08T13:20:11;30.60;94.80
33093;DHT22;19456;46.104;12.908;2023-10-08T13:22:37;30.20;95.30
33093;DHT22;19456;46.104;12.908;2023-10-08T13:25:03;29.80;96.30
33093;DHT22;19456;46.104;12.908;2023-10-08T13:27:30;29.70;96.80
33093;DHT22;19456;46.104;12.908;2023-10-08T13:29:56;29.80;96.80
33093;DHT22;19456;46.104;12.908;2023-10-08T13:32:21;29.80;96.70
33093;DHT22;19456;46.104;12.908;2023-10-08T13:34:49;29.70;97.00
33093;DHT22;19456;46.104;12.908;2023-10-08T13:37:15;29.50;97.40
33093;DHT22;19456;46.104;12.908;2023-10-08T13:39:41;29.40;97.50
33093;DHT22;19456;46.104;12.908;2023-10-08T13:42:06;29.20;97.70
33093;DHT22;19456;46.104;12.908;2023-10-08T13:44:32;28.90;97.80
33093;DHT22;19456;46.104;12.908;2023-10-08T13:46:58;28.60;98.50
33093;DHT22;19456;46.104;12.908;2023-10-08T13:49:25;28.60;98.80
33093;DHT22;19456;46.104;12.908;2023-10-08T13:51:52;28.40;98.90
33093;DHT22;19456;46.104;12.908;2023-10-08T13:54:21;28.00;99.60
33093;DHT22;19456;46.104;12.908;2023-10-08T13:56:47;27.70;99.90
33093;DHT22;19456;46.104;12.908;2023-10-08T13:59:16;27.50;99.90
33093;DHT22;19456;46.104;12.908;2023-10-08T14:01:42;27.30;99.90
33093;DHT22;19456;46.104;12.908;2023-10-08T14:04:12;27.10;99.90
33093;DHT22;19456;46.104;12.908;2023-10-08T14:06:41;26.90;99.90
33093;DHT22;19456;46.104;12.908;2023-10-08T14:09:13;26.70;99.90
33093;DHT22;19456;46.104;12.908;2023-10-08T14:11:46;26.70;99.90
33093;DHT22;19456;46.104;12.908;2023-10-08T14:14:12;26.60;99.90
33093;DHT22;19456;46.104;12.908;2023-10-08T14:16:40;26.50;99.90
33093;DHT22;19456;46.104;12.908;2023-10-08T14:19:07;26.50;99.90
33093;DHT22;19456;46.104;12.908;2023-10-08T14:21:35;26.60;99.90
33093;DHT22;19456;46.104;12.908;2023-10-08T14:24:09;26.70;99.90
33093;DHT22;19456;46.104;12.908;2023-10-08T14:26:41;26.70;99.90
33093;DHT22;19456;46.104;12.908;2023-10-08T14:29:08;26.70;99.90
33093;DHT22;19456;46.104;12.908;2023-10-08T14:31:39;27.00;99.90
33093;DHT22;19456;46.104;12.908;2023-10-08T14:34:05;27.80;99.90
33093;DHT22;19456;46.104;12.908;2023-10-08T14:36:32;29.00;99.90
33093;DHT22;19456;46.104;12.908;2023-10-08T14:39:16;30.20;99.70
33093;DHT22;19456;46.104;12.908;2023-10-08T14:42:01;31.20;97.60
33093;DHT22;19456;46.104;12.908;2023-10-08T14:44:45;31.80;95.70
33093;DHT22;19456;46.104;12.908;2023-10-08T14:47:12;31.80;94.60
33093;DHT22;19456;46.104;12.908;2023-10-08T14:49:38;31.20;95.00
33093;DHT22;19456;46.104;12.908;2023-10-08T14:52:03;30.80;95.80
33093;DHT22;19456;46.104;12.908;2023-10-08T14:54:30;30.90;95.60
33093;DHT22;19456;46.104;12.908;2023-10-08T14:56:56;30.90;94.90
33093;DHT22;19456;46.104;12.908;2023-10-08T14:59:22;30.50;95.40
33093;DHT22;19456;46.104;12.908;2023-10-08T15:01:49;30.30;95.60
33093;DHT22;19456;46.104;12.908;2023-10-08T15:04:15;30.50;95.90
33093;DHT22;19456;46.104;12.908;2023-10-08T15:06:41;30.20;95.50
33093;DHT22;19456;46.104;12.908;2023-10-08T15:09:10;30.30;96.60
33093;DHT22;19456;46.104;12.908;2023-10-08T15:11:44;29.80;97.30
33093;DHT22;19456;46.104;12.908;2023-10-08T15:14:11;29.20;97.40
33093;DHT22;19456;46.104;12.908;2023-10-08T15:16:37;28.80;97.90
33093;DHT22;19456;46.104;12.908;2023-10-08T15:19:04;28.50;98.70
33093;DHT22;19456;46.104;12.908;2023-10-08T15:21:30;28.20;99.00
33093;DHT22;19456;46.104;12.908;2023-10-08T15:23:59;28.10;99.20
33093;DHT22;19456;46.104;12.908;2023-10-08T15:26:31;27.70;99.90
33093;DHT22;19456;46.104;12.908;2023-10-08T15:28:57;27.40;99.90
33093;DHT22;19456;46.104;12.908;2023-10-08T15:31:22;27.00;99.90
33093;DHT22;19456;46.104;12.908;2023-10-08T15:33:49;26.80;99.90
33093;DHT22;19456;46.104;12.908;2023-10-08T15:36:14;26.70;99.90
33093;DHT22;19456;46.104;12.908;2023-10-08T15:38:40;26.60;99.90
33093;DHT22;19456;46.104;12.908;2023-10-08T15:41:06;26.50;99.90
33093;DHT22;19456;46.104;12.908;2023-10-08T15:43:31;26.20;99.90
33093;DHT22;19456;46.104;12.908;2023-10-08T15:45:57;26.10;99.90
33093;DHT22;19456;46.104;12.908;2023-10-08T15:48:22;26.10;99.90
33093;DHT22;19456;46.104;12.908;2023-10-08T15:50:48;26.00;99.90
33093;DHT22;19456;46.104;12.908;2023-10-08T15:53:13;25.90;99.90
33093;DHT22;19456;46.104;12.908;2023-10-08T15:55:39;25.80;99.90
33093;DHT22;19456;46.104;12.908;2023-10-08T15:58:05;25.70;99.90
33093;DHT22;19456;46.104;12.908;2023-10-08T16:00:30;25.60;99.90
33093;DHT22;19456;46.104;12.908;2023-10-08T16:02:58;25.50;99.90